sensor_id;sensor_type;location;lat;lon;timestamp;P1;durP1;ratioP1;P2;durP2;ratioP2
44824;SDS011;30542;47.928;2.138;2023-04-23T00:00:57;0.73;;;0.52;;
44824;SDS011;30542;47.928;2.138;2023-04-23T00:06:04;0.93;;;0.63;;
44824;SDS011;30542;47.928;2.138;2023-04-23T00:11:07;1.35;;;0.65;;
44824;SDS011;30542;47.928;2.138;2023-04-23T00:16:09;0.93;;;0.45;;
44824;SDS011;30542;47.928;2.138;2023-04-23T00:21:10;1.35;;;0.63;;
44824;SDS011;30542;47.928;2.138;2023-04-23T00:26:10;1.45;;;0.52;;
44824;SDS011;30542;47.928;2.138;2023-04-23T00:31:11;0.80;;;0.45;;
44824;SDS011;30542;47.928;2.138;2023-04-23T00:36:11;1.10;;;0.57;;
44824;SDS011;30542;47.928;2.138;2023-04-23T00:41:12;0.30;;;0.30;;
44824;SDS011;30542;47.928;2.138;2023-04-23T00:46:13;1.10;;;0.43;;
44824;SDS011;30542;47.928;2.138;2023-04-23T00:51:15;1.85;;;0.40;;
44824;SDS011;30542;47.928;2.138;2023-04-23T00:56:16;0.93;;;0.50;;
44824;SDS011;30542;47.928;2.138;2023-04-23T01:01:18;0.75;;;0.40;;
44824;SDS011;30542;47.928;2.138;2023-04-23T01:06:19;0.60;;;0.40;;
44824;SDS011;30542;47.928;2.138;2023-04-23T01:11:20;0.73;;;0.50;;
44824;SDS011;30542;47.928;2.138;2023-04-23T01:16:21;0.70;;;0.40;;
44824;SDS011;30542;47.928;2.138;2023-04-23T01:21:22;1.83;;;0.60;;
44824;SDS011;30542;47.928;2.138;2023-04-23T01:26:23;1.10;;;0.57;;
44824;SDS011;30542;47.928;2.138;2023-04-23T01:31:24;2.03;;;0.50;;
44824;SDS011;30542;47.928;2.138;2023-04-23T01:36:25;0.85;;;0.40;;
44824;SDS011;30542;47.928;2.138;2023-04-23T01:41:26;1.45;;;0.30;;
44824;SDS011;30542;47.928;2.138;2023-04-23T01:46:27;0.57;;;0.50;;
44824;SDS011;30542;47.928;2.138;2023-04-23T01:51:28;0.93;;;0.30;;
44824;SDS011;30542;47.928;2.138;2023-04-23T01:56:29;1.02;;;0.30;;
44824;SDS011;30542;47.928;2.138;2023-04-23T02:01:45;0.93;;;0.40;;
44824;SDS011;30542;47.928;2.138;2023-04-23T02:06:47;1.13;;;0.55;;
44824;SDS011;30542;47.928;2.138;2023-04-23T02:11:49;1.08;;;0.50;;
44824;SDS011;30542;47.928;2.138;2023-04-23T02:16:50;1.58;;;0.70;;
44824;SDS011;30542;47.928;2.138;2023-04-23T02:21:50;0.70;;;0.38;;
44824;SDS011;30542;47.928;2.138;2023-04-23T02:26:50;0.75;;;0.38;;
44824;SDS011;30542;47.928;2.138;2023-04-23T02:31:51;1.10;;;0.30;;
44824;SDS011;30542;47.928;2.138;2023-04-23T02:36:51;0.47;;;0.30;;
44824;SDS011;30542;47.928;2.138;2023-04-23T02:41:52;0.50;;;0.30;;
44824;SDS011;30542;47.928;2.138;2023-04-23T02:46:52;0.67;;;0.37;;
44824;SDS011;30542;47.928;2.138;2023-04-23T02:51:52;0.85;;;0.30;;
44824;SDS011;30542;47.928;2.138;2023-04-23T02:56:53;1.23;;;0.33;;
44824;SDS011;30542;47.928;2.138;2023-04-23T03:01:53;0.50;;;0.20;;
44824;SDS011;30542;47.928;2.138;2023-04-23T03:06:54;0.55;;;0.30;;
44824;SDS011;30542;47.928;2.138;2023-04-23T03:11:54;0.95;;;0.30;;
44824;SDS011;30542;47.928;2.138;2023-04-23T03:16:56;0.75;;;0.30;;
44824;SDS011;30542;47.928;2.138;2023-04-23T03:21:56;1.10;;;0.30;;
44824;SDS011;30542;47.928;2.138;2023-04-23T03:26:57;1.17;;;0.57;;
44824;SDS011;30542;47.928;2.138;2023-04-23T03:31:57;0.40;;;0.30;;
44824;SDS011;30542;47.928;2.138;2023-04-23T03:36:57;0.80;;;0.40;;
44824;SDS011;30542;47.928;2.138;2023-04-23T03:41:58;0.40;;;0.30;;
44824;SDS011;30542;47.928;2.138;2023-04-23T03:46:58;0.30;;;0.30;;
44824;SDS011;30542;47.928;2.138;2023-04-23T03:51:58;1.40;;;0.38;;
44824;SDS011;30542;47.928;2.138;2023-04-23T03:56:59;0.68;;;0.20;;
44824;SDS011;30542;47.928;2.138;2023-04-23T04:02:00;1.02;;;0.30;;
44824;SDS011;30542;47.928;2.138;2023-04-23T04:07:03;1.05;;;0.30;;
44824;SDS011;30542;47.928;2.138;2023-04-23T04:12:04;0.40;;;0.20;;
44824;SDS011;30542;47.928;2.138;2023-04-23T04:17:05;0.30;;;0.20;;
44824;SDS011;30542;47.928;2.138;2023-04-23T04:22:05;1.17;;;0.30;;
44824;SDS011;30542;47.928;2.138;2023-04-23T04:27:06;0.50;;;0.30;;
44824;SDS011;30542;47.928;2.138;2023-04-23T04:32:07;0.88;;;0.30;;
44824;SDS011;30542;47.928;2.138;2023-04-23T04:37:08;1.13;;;0.20;;
44824;SDS011;30542;47.928;2.138;2023-04-23T04:42:10;1.65;;;0.38;;
44824;SDS011;30542;47.928;2.138;2023-04-23T04:47:12;0.30;;;0.30;;
44824;SDS011;30542;47.928;2.138;2023-04-23T04:52:12;0.57;;;0.28;;
44824;SDS011;30542;47.928;2.138;2023-04-23T04:57:12;0.83;;;0.30;;
44824;SDS011;30542;47.928;2.138;2023-04-23T05:02:13;0.40;;;0.27;;
44824;SDS011;30542;47.928;2.138;2023-04-23T05:07:13;0.30;;;0.30;;
44824;SDS011;30542;47.928;2.138;2023-04-23T05:12:13;1.33;;;0.30;;
44824;SDS011;30542;47.928;2.138;2023-04-23T05:17:14;0.50;;;0.37;;
44824;SDS011;30542;47.928;2.138;2023-04-23T05:22:14;0.57;;;0.30;;
44824;SDS011;30542;47.928;2.138;2023-04-23T05:27:17;0.50;;;0.20;;
44824;SDS011;30542;47.928;2.138;2023-04-23T05:32:17;0.47;;;0.20;;
44824;SDS011;30542;47.928;2.138;2023-04-23T05:37:18;0.50;;;0.30;;
44824;SDS011;30542;47.928;2.138;2023-04-23T05:42:18;0.47;;;0.20;;
44824;SDS011;30542;47.928;2.138;2023-04-23T05:47:18;0.60;;;0.30;;
44824;SDS011;30542;47.928;2.138;2023-04-23T05:52:19;0.40;;;0.20;;
44824;SDS011;30542;47.928;2.138;2023-04-23T05:57:19;0.60;;;0.27;;
44824;SDS011;30542;47.928;2.138;2023-04-23T06:02:19;0.63;;;0.30;;
44824;SDS011;30542;47.928;2.138;2023-04-23T06:07:20;1.23;;;0.30;;
44824;SDS011;30542;47.928;2.138;2023-04-23T06:12:20;0.70;;;0.40;;
44824;SDS011;30542;47.928;2.138;2023-04-23T06:17:20;1.13;;;0.30;;
44824;SDS011;30542;47.928;2.138;2023-04-23T06:22:21;0.80;;;0.20;;
44824;SDS011;30542;47.928;2.138;2023-04-23T06:27:21;0.90;;;0.20;;
44824;SDS011;30542;47.928;2.138;2023-04-23T06:32:21;1.87;;;0.23;;
44824;SDS011;30542;47.928;2.138;2023-04-23T06:37:22;1.48;;;0.20;;
44824;SDS011;30542;47.928;2.138;2023-04-23T06:42:22;0.87;;;0.20;;
44824;SDS011;30542;47.928;2.138;2023-04-23T06:47:23;1.07;;;0.20;;
44824;SDS011;30542;47.928;2.138;2023-04-23T06:52:23;0.93;;;0.30;;
44824;SDS011;30542;47.928;2.138;2023-04-23T06:57:23;1.03;;;0.27;;
44824;SDS011;30542;47.928;2.138;2023-04-23T07:02:24;1.38;;;0.55;;
44824;SDS011;30542;47.928;2.138;2023-04-23T07:07:25;0.25;;;0.20;;
44824;SDS011;30542;47.928;2.138;2023-04-23T07:12:25;1.60;;;0.40;;
44824;SDS011;30542;47.928;2.138;2023-04-23T07:17:26;0.93;;;0.20;;
44824;SDS011;30542;47.928;2.138;2023-04-23T07:22:26;1.30;;;0.30;;
44824;SDS011;30542;47.928;2.138;2023-04-23T07:27:26;1.47;;;0.30;;
44824;SDS011;30542;47.928;2.138;2023-04-23T07:32:27;1.47;;;0.40;;
44824;SDS011;30542;47.928;2.138;2023-04-23T07:37:27;1.33;;;0.30;;
44824;SDS011;30542;47.928;2.138;2023-04-23T07:42:27;1.23;;;0.40;;
44824;SDS011;30542;47.928;2.138;2023-04-23T07:47:28;5.37;;;1.93;;
44824;SDS011;30542;47.928;2.138;2023-04-23T07:52:28;12.85;;;3.63;;
44824;SDS011;30542;47.928;2.138;2023-04-23T07:57:28;28.60;;;8.23;;
44824;SDS011;30542;47.928;2.138;2023-04-23T08:02:29;45.70;;;12.33;;
44824;SDS011;30542;47.928;2.138;2023-04-23T08:07:29;59.10;;;16.30;;
44824;SDS011;30542;47.928;2.138;2023-04-23T08:12:30;49.60;;;15.98;;
44824;SDS011;30542;47.928;2.138;2023-04-23T08:17:33;59.92;;;18.15;;
44824;SDS011;30542;47.928;2.138;2023-04-23T08:22:33;57.70;;;16.50;;
44824;SDS011;30542;47.928;2.138;2023-04-23T08:27:33;53.53;;;14.77;;
44824;SDS011;30542;47.928;2.138;2023-04-23T08:32:34;50.60;;;13.97;;
44824;SDS011;30542;47.928;2.138;2023-04-23T08:37:34;39.47;;;12.30;;
44824;SDS011;30542;47.928;2.138;2023-04-23T08:42:36;43.00;;;13.17;;
44824;SDS011;30542;47.928;2.138;2023-04-23T08:47:52;43.78;;;12.50;;
44824;SDS011;30542;47.928;2.138;2023-04-23T08:52:57;39.83;;;11.75;;
44824;SDS011;30542;47.928;2.138;2023-04-23T08:57:57;50.78;;;15.40;;
44824;SDS011;30542;47.928;2.138;2023-04-23T09:02:58;51.50;;;14.52;;
44824;SDS011;30542;47.928;2.138;2023-04-23T09:07:59;46.97;;;14.27;;
44824;SDS011;30542;47.928;2.138;2023-04-23T09:13:00;41.30;;;13.43;;
44824;SDS011;30542;47.928;2.138;2023-04-23T09:18:00;34.97;;;12.83;;
44824;SDS011;30542;47.928;2.138;2023-04-23T09:23:05;33.90;;;12.20;;
44824;SDS011;30542;47.928;2.138;2023-04-23T09:28:07;30.80;;;10.55;;
44824;SDS011;30542;47.928;2.138;2023-04-23T09:33:10;34.92;;;10.48;;
44824;SDS011;30542;47.928;2.138;2023-04-23T09:38:11;30.25;;;9.70;;
44824;SDS011;30542;47.928;2.138;2023-04-23T09:43:11;25.67;;;9.33;;
44824;SDS011;30542;47.928;2.138;2023-04-23T09:48:12;24.20;;;8.43;;
44824;SDS011;30542;47.928;2.138;2023-04-23T09:53:12;24.97;;;8.70;;
44824;SDS011;30542;47.928;2.138;2023-04-23T09:58:13;22.83;;;8.23;;
44824;SDS011;30542;47.928;2.138;2023-04-23T10:03:14;20.77;;;7.72;;
44824;SDS011;30542;47.928;2.138;2023-04-23T10:08:14;21.63;;;7.20;;
44824;SDS011;30542;47.928;2.138;2023-04-23T10:13:18;20.70;;;7.18;;
44824;SDS011;30542;47.928;2.138;2023-04-23T10:18:19;20.67;;;6.35;;
44824;SDS011;30542;47.928;2.138;2023-04-23T10:23:20;19.97;;;6.90;;
44824;SDS011;30542;47.928;2.138;2023-04-23T10:28:22;16.40;;;6.43;;
44824;SDS011;30542;47.928;2.138;2023-04-23T10:33:28;15.25;;;4.97;;
44824;SDS011;30542;47.928;2.138;2023-04-23T10:38:30;17.20;;;6.18;;
44824;SDS011;30542;47.928;2.138;2023-04-23T10:43:30;14.13;;;4.88;;
44824;SDS011;30542;47.928;2.138;2023-04-23T10:48:50;15.07;;;5.70;;
44824;SDS011;30542;47.928;2.138;2023-04-23T10:53:50;12.27;;;4.65;;
44824;SDS011;30542;47.928;2.138;2023-04-23T10:58:51;11.90;;;5.03;;
44824;SDS011;30542;47.928;2.138;2023-04-23T11:03:51;10.40;;;3.53;;
44824;SDS011;30542;47.928;2.138;2023-04-23T11:08:52;11.27;;;4.43;;
44824;SDS011;30542;47.928;2.138;2023-04-23T11:13:53;14.10;;;4.45;;
44824;SDS011;30542;47.928;2.138;2023-04-23T11:18:54;9.87;;;3.47;;
44824;SDS011;30542;47.928;2.138;2023-04-23T11:23:55;9.90;;;3.95;;
44824;SDS011;30542;47.928;2.138;2023-04-23T11:28:55;13.30;;;4.00;;
44824;SDS011;30542;47.928;2.138;2023-04-23T11:33:57;9.75;;;4.03;;
44824;SDS011;30542;47.928;2.138;2023-04-23T11:38:57;12.13;;;3.70;;
44824;SDS011;30542;47.928;2.138;2023-04-23T11:43:57;10.40;;;3.90;;
44824;SDS011;30542;47.928;2.138;2023-04-23T11:48:58;14.10;;;4.38;;
44824;SDS011;30542;47.928;2.138;2023-04-23T11:54:03;11.10;;;3.90;;
44824;SDS011;30542;47.928;2.138;2023-04-23T11:59:04;11.82;;;3.92;;
44824;SDS011;30542;47.928;2.138;2023-04-23T12:04:08;12.90;;;3.63;;
44824;SDS011;30542;47.928;2.138;2023-04-23T12:09:13;8.80;;;3.03;;
44824;SDS011;30542;47.928;2.138;2023-04-23T12:14:14;11.00;;;3.10;;
44824;SDS011;30542;47.928;2.138;2023-04-23T12:19:16;9.25;;;3.35;;
44824;SDS011;30542;47.928;2.138;2023-04-23T12:24:18;7.07;;;2.80;;
44824;SDS011;30542;47.928;2.138;2023-04-23T12:29:18;8.48;;;2.50;;
44824;SDS011;30542;47.928;2.138;2023-04-23T12:34:19;8.63;;;2.78;;
44824;SDS011;30542;47.928;2.138;2023-04-23T12:39:27;5.93;;;2.17;;
44824;SDS011;30542;47.928;2.138;2023-04-23T12:44:32;20.38;;;3.22;;
44824;SDS011;30542;47.928;2.138;2023-04-23T12:49:35;7.05;;;1.98;;
44824;SDS011;30542;47.928;2.138;2023-04-23T12:54:38;4.60;;;1.35;;
44824;SDS011;30542;47.928;2.138;2023-04-23T12:59:39;8.52;;;2.45;;
44824;SDS011;30542;47.928;2.138;2023-04-23T13:04:39;3.17;;;1.07;;
44824;SDS011;30542;47.928;2.138;2023-04-23T13:09:40;7.78;;;1.40;;
44824;SDS011;30542;47.928;2.138;2023-04-23T13:14:40;10.10;;;1.13;;
44824;SDS011;30542;47.928;2.138;2023-04-23T13:19:40;6.18;;;1.23;;
44824;SDS011;30542;47.928;2.138;2023-04-23T13:24:40;8.33;;;1.40;;
44824;SDS011;30542;47.928;2.138;2023-04-23T13:29:41;6.87;;;1.63;;
44824;SDS011;30542;47.928;2.138;2023-04-23T13:34:41;5.47;;;1.45;;
44824;SDS011;30542;47.928;2.138;2023-04-23T13:39:42;6.38;;;2.13;;
44824;SDS011;30542;47.928;2.138;2023-04-23T13:44:42;6.10;;;1.27;;
44824;SDS011;30542;47.928;2.138;2023-04-23T13:49:42;5.15;;;1.42;;
44824;SDS011;30542;47.928;2.138;2023-04-23T13:54:43;4.80;;;1.47;;
44824;SDS011;30542;47.928;2.138;2023-04-23T13:59:43;4.73;;;1.00;;
44824;SDS011;30542;47.928;2.138;2023-04-23T14:04:43;5.88;;;1.40;;
44824;SDS011;30542;47.928;2.138;2023-04-23T14:09:44;5.22;;;1.20;;
44824;SDS011;30542;47.928;2.138;2023-04-23T14:14:46;7.82;;;1.15;;
44824;SDS011;30542;47.928;2.138;2023-04-23T14:19:47;4.78;;;1.42;;
44824;SDS011;30542;47.928;2.138;2023-04-23T14:24:52;5.37;;;0.93;;
44824;SDS011;30542;47.928;2.138;2023-04-23T14:30:00;4.60;;;1.10;;
44824;SDS011;30542;47.928;2.138;2023-04-23T14:35:04;6.55;;;0.77;;
44824;SDS011;30542;47.928;2.138;2023-04-23T14:40:04;5.07;;;1.10;;
44824;SDS011;30542;47.928;2.138;2023-04-23T14:45:05;4.55;;;0.75;;
44824;SDS011;30542;47.928;2.138;2023-04-23T14:50:06;4.18;;;1.20;;
44824;SDS011;30542;47.928;2.138;2023-04-23T14:55:07;2.05;;;0.50;;
44824;SDS011;30542;47.928;2.138;2023-04-23T15:00:08;4.72;;;0.60;;
44824;SDS011;30542;47.928;2.138;2023-04-23T15:05:12;3.63;;;0.80;;
44824;SDS011;30542;47.928;2.138;2023-04-23T15:10:14;2.95;;;0.50;;
44824;SDS011;30542;47.928;2.138;2023-04-23T15:20:24;3.22;;;0.50;;
44824;SDS011;30542;47.928;2.138;2023-04-23T15:25:24;2.05;;;0.57;;
44824;SDS011;30542;47.928;2.138;2023-04-23T15:30:24;4.13;;;0.67;;
44824;SDS011;30542;47.928;2.138;2023-04-23T15:35:26;3.13;;;0.80;;
44824;SDS011;30542;47.928;2.138;2023-04-23T15:40:27;1.92;;;0.40;;
44824;SDS011;30542;47.928;2.138;2023-04-23T15:45:28;1.75;;;0.45;;
44824;SDS011;30542;47.928;2.138;2023-04-23T15:50:28;2.53;;;0.60;;
44824;SDS011;30542;47.928;2.138;2023-04-23T15:55:29;1.50;;;0.63;;
44824;SDS011;30542;47.928;2.138;2023-04-23T16:00:30;4.13;;;0.80;;
44824;SDS011;30542;47.928;2.138;2023-04-23T16:05:33;4.82;;;0.80;;
44824;SDS011;30542;47.928;2.138;2023-04-23T16:10:36;2.25;;;0.50;;
44824;SDS011;30542;47.928;2.138;2023-04-23T16:15:37;7.03;;;0.70;;
44824;SDS011;30542;47.928;2.138;2023-04-23T16:20:37;8.60;;;0.97;;
44824;SDS011;30542;47.928;2.138;2023-04-23T16:25:37;6.40;;;0.90;;
44824;SDS011;30542;47.928;2.138;2023-04-23T16:30:38;7.40;;;1.03;;
44824;SDS011;30542;47.928;2.138;2023-04-23T16:35:38;6.82;;;1.27;;
44824;SDS011;30542;47.928;2.138;2023-04-23T16:40:39;7.90;;;1.10;;
44824;SDS011;30542;47.928;2.138;2023-04-23T16:45:39;3.00;;;0.40;;
44824;SDS011;30542;47.928;2.138;2023-04-23T16:50:39;3.30;;;0.60;;
44824;SDS011;30542;47.928;2.138;2023-04-23T16:55:41;3.80;;;0.68;;
44824;SDS011;30542;47.928;2.138;2023-04-23T17:00:42;4.35;;;0.73;;
44824;SDS011;30542;47.928;2.138;2023-04-23T17:05:43;5.13;;;0.63;;
44824;SDS011;30542;47.928;2.138;2023-04-23T17:10:48;3.55;;;0.40;;
44824;SDS011;30542;47.928;2.138;2023-04-23T17:15:49;1.63;;;0.37;;
44824;SDS011;30542;47.928;2.138;2023-04-23T17:20:49;2.15;;;0.40;;
44824;SDS011;30542;47.928;2.138;2023-04-23T17:25:49;2.60;;;0.60;;
44824;SDS011;30542;47.928;2.138;2023-04-23T17:30:50;4.43;;;1.47;;
44824;SDS011;30542;47.928;2.138;2023-04-23T17:35:51;10.75;;;2.25;;
44824;SDS011;30542;47.928;2.138;2023-04-23T17:40:52;12.07;;;3.05;;
44824;SDS011;30542;47.928;2.138;2023-04-23T17:45:52;9.07;;;2.72;;
44824;SDS011;30542;47.928;2.138;2023-04-23T17:50:53;11.40;;;3.87;;
44824;SDS011;30542;47.928;2.138;2023-04-23T17:55:53;12.13;;;3.60;;
44824;SDS011;30542;47.928;2.138;2023-04-23T18:00:58;12.30;;;3.22;;
44824;SDS011;30542;47.928;2.138;2023-04-23T18:05:58;9.33;;;3.10;;
44824;SDS011;30542;47.928;2.138;2023-04-23T18:10:59;10.30;;;3.17;;
44824;SDS011;30542;47.928;2.138;2023-04-23T18:15:59;10.85;;;3.28;;
44824;SDS011;30542;47.928;2.138;2023-04-23T18:21:00;11.73;;;3.30;;
44824;SDS011;30542;47.928;2.138;2023-04-23T18:26:00;11.80;;;3.40;;
44824;SDS011;30542;47.928;2.138;2023-04-23T18:31:01;11.83;;;2.90;;
44824;SDS011;30542;47.928;2.138;2023-04-23T18:36:12;9.15;;;3.20;;
44824;SDS011;30542;47.928;2.138;2023-04-23T18:41:30;8.82;;;3.08;;
44824;SDS011;30542;47.928;2.138;2023-04-23T18:46:30;6.97;;;2.73;;
44824;SDS011;30542;47.928;2.138;2023-04-23T18:51:43;8.25;;;2.95;;
44824;SDS011;30542;47.928;2.138;2023-04-23T18:56:48;8.70;;;2.72;;
44824;SDS011;30542;47.928;2.138;2023-04-23T19:01:50;6.35;;;2.40;;
44824;SDS011;30542;47.928;2.138;2023-04-23T19:06:50;4.93;;;1.95;;
44824;SDS011;30542;47.928;2.138;2023-04-23T19:11:51;10.02;;;2.63;;
44824;SDS011;30542;47.928;2.138;2023-04-23T19:16:51;6.13;;;2.33;;
44824;SDS011;30542;47.928;2.138;2023-04-23T19:21:53;7.80;;;2.45;;
44824;SDS011;30542;47.928;2.138;2023-04-23T19:26:53;6.78;;;2.42;;
44824;SDS011;30542;47.928;2.138;2023-04-23T19:31:53;7.23;;;2.17;;
44824;SDS011;30542;47.928;2.138;2023-04-23T19:36:54;5.70;;;2.00;;
44824;SDS011;30542;47.928;2.138;2023-04-23T19:41:54;5.73;;;1.70;;
44824;SDS011;30542;47.928;2.138;2023-04-23T19:46:54;5.67;;;2.20;;
44824;SDS011;30542;47.928;2.138;2023-04-23T19:51:55;6.57;;;2.03;;
44824;SDS011;30542;47.928;2.138;2023-04-23T19:56:57;6.50;;;1.90;;
44824;SDS011;30542;47.928;2.138;2023-04-23T20:01:57;6.13;;;1.42;;
44824;SDS011;30542;47.928;2.138;2023-04-23T20:06:57;3.90;;;1.50;;
44824;SDS011;30542;47.928;2.138;2023-04-23T20:11:57;6.10;;;1.52;;
44824;SDS011;30542;47.928;2.138;2023-04-23T20:16:58;4.00;;;1.42;;
44824;SDS011;30542;47.928;2.138;2023-04-23T20:21:58;4.83;;;1.63;;
44824;SDS011;30542;47.928;2.138;2023-04-23T20:26:59;3.60;;;1.42;;
44824;SDS011;30542;47.928;2.138;2023-04-23T20:32:00;3.58;;;1.60;;
44824;SDS011;30542;47.928;2.138;2023-04-23T20:37:00;3.07;;;1.20;;
44824;SDS011;30542;47.928;2.138;2023-04-23T20:42:01;3.95;;;1.15;;
44824;SDS011;30542;47.928;2.138;2023-04-23T20:47:04;2.28;;;1.20;;
44824;SDS011;30542;47.928;2.138;2023-04-23T20:52:07;4.10;;;1.40;;
44824;SDS011;30542;47.928;2.138;2023-04-23T20:57:07;2.30;;;1.00;;
44824;SDS011;30542;47.928;2.138;2023-04-23T21:02:08;5.50;;;1.23;;
44824;SDS011;30542;47.928;2.138;2023-04-23T21:07:11;2.97;;;0.95;;
44824;SDS011;30542;47.928;2.138;2023-04-23T21:12:12;4.17;;;1.30;;
44824;SDS011;30542;47.928;2.138;2023-04-23T21:17:12;3.03;;;0.80;;
44824;SDS011;30542;47.928;2.138;2023-04-23T21:22:12;2.80;;;1.10;;
44824;SDS011;30542;47.928;2.138;2023-04-23T21:27:13;4.30;;;1.23;;
44824;SDS011;30542;47.928;2.138;2023-04-23T21:32:17;3.42;;;1.00;;
44824;SDS011;30542;47.928;2.138;2023-04-23T21:37:17;2.70;;;0.90;;
44824;SDS011;30542;47.928;2.138;2023-04-23T21:42:17;2.42;;;1.15;;
44824;SDS011;30542;47.928;2.138;2023-04-23T21:47:18;3.03;;;0.87;;
44824;SDS011;30542;47.928;2.138;2023-04-23T21:52:18;2.73;;;0.70;;
44824;SDS011;30542;47.928;2.138;2023-04-23T21:57:19;5.10;;;1.10;;
44824;SDS011;30542;47.928;2.138;2023-04-23T22:02:19;5.20;;;1.13;;
44824;SDS011;30542;47.928;2.138;2023-04-23T22:07:19;2.70;;;0.90;;
44824;SDS011;30542;47.928;2.138;2023-04-23T22:12:20;3.63;;;0.90;;
44824;SDS011;30542;47.928;2.138;2023-04-23T22:17:20;3.63;;;0.88;;
44824;SDS011;30542;47.928;2.138;2023-04-23T22:22:20;2.90;;;0.90;;
44824;SDS011;30542;47.928;2.138;2023-04-23T22:27:21;2.73;;;0.73;;
44824;SDS011;30542;47.928;2.138;2023-04-23T22:32:21;2.77;;;0.70;;
44824;SDS011;30542;47.928;2.138;2023-04-23T22:37:21;1.87;;;0.83;;
44824;SDS011;30542;47.928;2.138;2023-04-23T22:42:22;1.92;;;0.70;;
44824;SDS011;30542;47.928;2.138;2023-04-23T22:47:23;1.98;;;0.80;;
44824;SDS011;30542;47.928;2.138;2023-04-23T22:52:23;1.90;;;0.80;;
44824;SDS011;30542;47.928;2.138;2023-04-23T22:57:24;1.50;;;0.60;;
44824;SDS011;30542;47.928;2.138;2023-04-23T23:02:25;1.70;;;0.60;;
44824;SDS011;30542;47.928;2.138;2023-04-23T23:07:26;1.38;;;0.63;;
44824;SDS011;30542;47.928;2.138;2023-04-23T23:12:27;1.58;;;0.80;;
44824;SDS011;30542;47.928;2.138;2023-04-23T23:17:27;1.83;;;0.50;;
44824;SDS011;30542;47.928;2.138;2023-04-23T23:22:27;1.03;;;0.60;;
44824;SDS011;30542;47.928;2.138;2023-04-23T23:27:28;2.00;;;0.60;;
44824;SDS011;30542;47.928;2.138;2023-04-23T23:32:28;0.90;;;0.60;;
44824;SDS011;30542;47.928;2.138;2023-04-23T23:37:28;1.30;;;0.47;;
44824;SDS011;30542;47.928;2.138;2023-04-23T23:42:29;1.65;;;0.45;;
44824;SDS011;30542;47.928;2.138;2023-04-23T23:47:29;1.73;;;0.70;;
44824;SDS011;30542;47.928;2.138;2023-04-23T23:52:30;1.50;;;0.47;;
44824;SDS011;30542;47.928;2.138;2023-04-23T23:57:30;2.20;;;0.70;;
